createdAt,value
2022-12-22T00:00:55.071Z,1.21
2022-12-22T00:06:15.651Z,1.15
2022-12-22T00:11:36.306Z,1.15
2022-12-22T00:16:58.724Z,1.16
2022-12-22T00:22:21.549Z,1.14
2022-12-22T00:27:48.733Z,1.10
2022-12-22T00:33:12.846Z,1.07
2022-12-22T00:38:39.417Z,1.03
2022-12-22T00:44:00.212Z,0.96
2022-12-22T00:49:21.159Z,0.89
2022-12-22T00:54:42.249Z,0.84
2022-12-22T01:00:03.029Z,0.79
2022-12-22T01:05:23.613Z,0.76
2022-12-22T01:10:45.442Z,0.74
2022-12-22T01:16:06.178Z,0.75
2022-12-22T01:21:28.332Z,0.82
2022-12-22T01:26:49.360Z,0.87
2022-12-22T01:32:10.478Z,0.91
2022-12-22T01:37:31.134Z,0.95
2022-12-22T01:42:53.269Z,0.98
2022-12-22T01:48:13.981Z,1.06
2022-12-22T01:53:38.981Z,1.09
2022-12-22T01:59:03.180Z,1.11
2022-12-22T02:04:24.743Z,1.11
2022-12-22T02:10:00.835Z,1.10
2022-12-22T02:15:44.390Z,1.09
2022-12-22T02:21:23.464Z,1.06
2022-12-22T02:26:54.443Z,1.06
2022-12-22T02:32:16.272Z,1.04
2022-12-22T02:37:56.681Z,1.02
2022-12-22T02:43:32.434Z,1.00
2022-12-22T02:49:02.910Z,0.95
2022-12-22T02:54:26.064Z,0.91
2022-12-22T02:59:46.673Z,0.94
2022-12-22T03:05:07.428Z,0.97
2022-12-22T03:10:28.831Z,0.99
2022-12-22T03:15:49.391Z,1.00
2022-12-22T03:21:10.043Z,1.02
2022-12-22T03:26:11.813Z,1.00
2022-12-22T03:31:13.848Z,0.95
2022-12-22T03:36:15.611Z,0.91
2022-12-22T03:41:35.870Z,0.88
2022-12-22T03:46:37.760Z,0.86
2022-12-22T03:51:45.510Z,0.87
2022-12-22T03:56:48.140Z,0.89
2022-12-22T04:01:53.414Z,0.92
2022-12-22T04:06:55.857Z,0.97
2022-12-22T04:12:16.112Z,1.04
2022-12-22T04:17:17.936Z,1.10
2022-12-22T04:22:19.605Z,1.14
2022-12-22T04:27:21.380Z,1.17
2022-12-22T04:32:23.252Z,1.16
2022-12-22T04:37:25.004Z,1.15
2022-12-22T04:42:26.752Z,1.14
2022-12-22T04:47:28.575Z,1.13
2022-12-22T04:52:30.426Z,1.14
2022-12-22T04:57:38.608Z,1.15
2022-12-22T05:02:42.368Z,1.16
2022-12-22T05:07:44.308Z,1.16
2022-12-22T05:12:55.145Z,1.15
2022-12-22T05:17:58.346Z,1.15
2022-12-22T05:23:00.131Z,1.14
2022-12-22T05:28:01.931Z,1.13
2022-12-22T05:33:03.605Z,1.11
2022-12-22T05:38:05.327Z,1.09
2022-12-22T05:43:07.097Z,1.10
2022-12-22T05:48:08.807Z,1.14
2022-12-22T05:53:10.591Z,1.20
2022-12-22T05:58:12.377Z,1.28
2022-12-22T06:03:14.216Z,1.33
2022-12-22T06:08:16.434Z,1.39
2022-12-22T06:13:18.192Z,1.48
2022-12-22T06:18:19.988Z,1.53
2022-12-22T06:23:22.750Z,1.57
2022-12-22T06:28:24.808Z,1.59
2022-12-22T06:33:26.808Z,1.60
2022-12-22T06:38:28.824Z,1.60
2022-12-22T06:43:30.741Z,1.61
2022-12-22T06:48:32.431Z,1.62
2022-12-22T06:53:34.140Z,1.63
2022-12-22T06:58:35.804Z,1.65
2022-12-22T07:03:37.538Z,1.68
2022-12-22T07:08:39.253Z,1.73
2022-12-22T07:13:41.648Z,1.76
2022-12-22T07:18:43.465Z,1.80
2022-12-22T07:23:45.197Z,1.83
2022-12-22T07:28:47.008Z,1.90
2022-12-22T07:33:48.792Z,1.95
2022-12-22T07:38:52.020Z,2.00
2022-12-22T07:43:55.269Z,2.03
2022-12-22T07:49:16.206Z,2.06
2022-12-22T07:54:18.758Z,2.10
2022-12-22T07:59:20.638Z,2.21
2022-12-22T08:04:22.701Z,2.35
2022-12-22T08:09:24.673Z,2.45
2022-12-22T08:14:26.714Z,2.57
2022-12-22T08:19:28.527Z,2.74
2022-12-22T08:24:30.677Z,2.88
2022-12-22T08:29:38.427Z,3.08
2022-12-22T08:34:40.653Z,3.31
2022-12-22T08:39:46.563Z,3.52
2022-12-22T08:44:53.416Z,3.67
2022-12-22T08:49:55.335Z,3.76
2022-12-22T08:54:57.189Z,3.86
2022-12-22T08:59:59.212Z,3.97
2022-12-22T09:05:00.993Z,4.04
2022-12-22T09:10:02.737Z,4.09
2022-12-22T09:15:06.166Z,4.24
2022-12-22T09:20:08.566Z,4.33
2022-12-22T09:25:10.977Z,4.22
2022-12-22T09:30:13.210Z,4.22
2022-12-22T09:35:14.990Z,4.28
2022-12-22T09:40:16.827Z,4.20
2022-12-22T09:45:21.766Z,4.12
2022-12-22T09:50:26.111Z,4.06
2022-12-22T09:55:43.486Z,4.07
2022-12-22T10:00:51.115Z,4.11
2022-12-22T10:06:17.383Z,4.14
2022-12-22T10:11:19.265Z,4.20
2022-12-22T10:16:27.437Z,4.32
2022-12-22T10:21:29.319Z,4.52
2022-12-22T10:26:34.289Z,4.68
2022-12-22T10:31:56.745Z,4.85
2022-12-22T10:37:01.463Z,5.02
2022-12-22T10:42:14.658Z,5.10
2022-12-22T10:47:24.480Z,5.14
2022-12-22T10:52:32.119Z,5.19
2022-12-22T10:57:34.446Z,5.27
2022-12-22T11:02:38.480Z,5.36
2022-12-22T11:07:42.750Z,5.54
2022-12-22T11:12:59.224Z,5.79
2022-12-22T11:18:14.540Z,6.03
2022-12-22T11:23:41.883Z,6.16
2022-12-22T11:28:49.544Z,6.17
2022-12-22T11:34:09.723Z,5.99
2022-12-22T11:39:15.510Z,5.75
2022-12-22T11:44:45.111Z,5.66
2022-12-22T11:51:01.384Z,5.53
2022-12-22T11:55:43.349Z,5.47
2022-12-22T12:01:19.074Z,5.56
2022-12-22T12:06:34.968Z,5.43
2022-12-22T12:11:53.941Z,5.26
2022-12-22T12:17:03.128Z,5.06
2022-12-22T12:22:08.758Z,4.92
2022-12-22T12:27:41.742Z,4.78
2022-12-22T12:32:55.647Z,4.60
2022-12-22T12:38:06.150Z,4.40
2022-12-22T12:43:16.286Z,4.30
2022-12-22T12:48:24.495Z,4.35
2022-12-22T12:53:28.355Z,4.33
2022-12-22T12:58:39.163Z,4.30
2022-12-22T13:09:39.806Z,4.25
2022-12-22T13:14:57.402Z,4.26
2022-12-22T13:19:59.565Z,4.28
2022-12-22T13:25:04.063Z,4.21
2022-12-22T13:30:11.249Z,4.17
2022-12-22T13:35:37.499Z,4.22
2022-12-22T13:40:44.106Z,4.21
2022-12-22T13:45:52.927Z,4.20
2022-12-22T13:50:58.366Z,4.13
2022-12-22T13:56:00.731Z,4.09
2022-12-22T14:01:10.285Z,4.04
2022-12-22T14:06:39.363Z,3.98
2022-12-22T14:11:51.221Z,3.88
2022-12-22T14:16:57.451Z,3.81
2022-12-22T14:22:04.539Z,3.79
2022-12-22T14:27:12.247Z,3.74
2022-12-22T14:32:39.772Z,3.72
2022-12-22T14:37:41.609Z,3.70
2022-12-22T14:42:44.033Z,3.71
2022-12-22T14:47:45.868Z,3.72
2022-12-22T14:52:51.722Z,3.74
2022-12-22T14:57:59.144Z,3.73
2022-12-22T15:03:06.364Z,3.74
2022-12-22T15:08:38.823Z,3.76
2022-12-22T15:13:41.930Z,3.72
2022-12-22T15:18:44.857Z,3.70
2022-12-22T15:23:47.257Z,3.71
2022-12-22T15:28:49.026Z,3.75
2022-12-22T15:33:50.949Z,3.78
2022-12-22T15:38:52.739Z,3.82
2022-12-22T15:43:57.836Z,3.86
2022-12-22T15:49:01.260Z,3.89
2022-12-22T15:54:04.510Z,3.94
2022-12-22T15:59:06.266Z,3.99
2022-12-22T16:04:08.146Z,4.01
2022-12-22T16:09:27.744Z,4.05
2022-12-22T16:14:35.258Z,4.06
2022-12-22T16:19:40.540Z,4.07
2022-12-22T16:24:45.757Z,4.10
2022-12-22T16:29:52.943Z,4.10
2022-12-22T16:35:13.139Z,4.10
2022-12-22T16:40:15.463Z,4.14
2022-12-22T16:45:28.704Z,4.15
2022-12-22T16:50:33.593Z,4.13
2022-12-22T16:55:36.220Z,4.08
2022-12-22T17:00:40.641Z,4.06
2022-12-22T17:05:46.274Z,4.02
2022-12-22T17:10:49.794Z,4.03
2022-12-22T17:15:51.648Z,4.02
2022-12-22T17:20:58.347Z,4.00
2022-12-22T17:26:03.565Z,3.98
2022-12-22T17:31:06.630Z,3.92
2022-12-22T17:36:18.736Z,3.84
2022-12-22T17:41:20.847Z,3.72
2022-12-22T17:46:22.990Z,3.61
2022-12-22T17:51:28.275Z,3.54
2022-12-22T17:56:30.991Z,3.53
2022-12-22T18:01:33.959Z,3.56
2022-12-22T18:06:38.839Z,3.58
2022-12-22T18:11:45.662Z,3.57
2022-12-22T18:16:48.113Z,3.55
2022-12-22T18:21:50.035Z,3.54
2022-12-22T18:26:51.929Z,3.54
2022-12-22T18:31:53.807Z,3.55
2022-12-22T18:36:55.683Z,3.54
2022-12-22T18:41:58.394Z,3.53
2022-12-22T18:47:00.350Z,3.55
2022-12-22T18:52:04.255Z,3.58
2022-12-22T18:57:13.865Z,3.60
2022-12-22T19:02:23.519Z,3.69
2022-12-22T19:07:26.797Z,3.82
2022-12-22T19:12:28.803Z,3.91
2022-12-22T19:17:30.929Z,3.95
2022-12-22T19:22:32.662Z,3.98
2022-12-22T19:27:34.440Z,4.00
2022-12-22T19:32:42.120Z,4.06
2022-12-22T19:37:46.159Z,4.11
2022-12-22T19:42:51.310Z,4.16
2022-12-22T19:47:54.127Z,4.22
2022-12-22T19:53:00.915Z,4.25
2022-12-22T19:58:03.124Z,4.25
2022-12-22T20:03:06.283Z,4.24
2022-12-22T20:08:08.292Z,4.22
2022-12-22T20:13:17.702Z,4.19
2022-12-22T20:18:22.536Z,4.17
2022-12-22T20:23:25.161Z,4.13
2022-12-22T20:28:31.356Z,4.08
2022-12-22T20:33:34.947Z,4.01
2022-12-22T20:38:41.109Z,3.93
2022-12-22T20:43:42.992Z,3.84
2022-12-22T20:48:50.671Z,3.81
2022-12-22T20:53:53.715Z,3.79
2022-12-22T20:58:56.257Z,3.81
2022-12-22T21:03:58.169Z,3.80
2022-12-22T21:09:01.318Z,3.75
2022-12-22T21:14:03.466Z,3.76
2022-12-22T21:19:05.573Z,3.79
2022-12-22T21:24:07.480Z,3.80
2022-12-22T21:29:16.126Z,3.84
2022-12-22T21:34:18.434Z,3.87
2022-12-22T21:39:33.360Z,3.93
2022-12-22T21:44:35.805Z,3.96
2022-12-22T21:49:37.663Z,3.98
2022-12-22T21:54:39.563Z,3.99
2022-12-22T21:59:41.328Z,3.98
2022-12-22T22:04:46.738Z,3.98
2022-12-22T22:09:53.832Z,3.96
2022-12-22T22:14:56.118Z,3.94
2022-12-22T22:19:58.041Z,3.95
2022-12-22T22:24:59.821Z,3.93
2022-12-22T22:30:01.641Z,3.91
2022-12-22T22:35:05.091Z,3.89
2022-12-22T22:40:11.737Z,3.87
2022-12-22T22:45:15.616Z,3.84
2022-12-22T22:50:19.000Z,3.81
2022-12-22T22:55:20.941Z,3.77
2022-12-22T23:00:22.964Z,3.73
2022-12-22T23:05:24.702Z,3.69
2022-12-22T23:10:26.581Z,3.65
2022-12-22T23:15:28.273Z,3.62
2022-12-22T23:20:29.993Z,3.63
2022-12-22T23:25:31.872Z,3.61
2022-12-22T23:30:33.561Z,3.58
2022-12-22T23:35:37.197Z,3.56
2022-12-22T23:40:55.700Z,3.53
2022-12-22T23:45:57.891Z,3.48
2022-12-22T23:50:59.889Z,3.43
2022-12-22T23:56:01.947Z,3.43
